Time;durP1;ratioP1;P1;durP2;ratioP2;P2;SDS_P1;SDS_P2;PMS_P1;PMS_P2;Temp;Humidity;BMP_temperature;BMP_pressure;BME280_temperature;BME280_humidity;BME280_pressure;Samples;Min_cycle;Max_cycle;Signal;HPM_P1;HPM_P2
2023/01/01 00:01:40;;;;;;;17.60;16.43;;;9.20;99.90;;;;;;5054831;28;20211;-82
2023/01/01 00:04:10;;;;;;;1.20;1.20;;;9.30;99.90;;;;;;5052655;28;20203;-82
2023/01/01 00:06:35;;;;;;;0.67;0.67;;;9.40;99.90;;;;;;5056834;28;20181;-82
2023/01/01 00:11:46;;;;;;;0.10;0.10;;;9.70;99.90;;;;;;5054878;28;20222;-83
2023/01/01 00:14:11;;;;;;;3.90;3.70;;;9.80;99.90;;;;;;5056709;28;20203;-83
2023/01/01 00:16:37;;;;;;;0.20;0.20;;;9.90;99.90;;;;;;5056278;28;20197;-83
2023/01/01 00:19:03;;;;;;;2.50;2.40;;;10.10;99.90;;;;;;5069674;28;20181;-82
2023/01/01 00:21:28;;;;;;;0.27;0.27;;;10.10;99.90;;;;;;5055174;28;20209;-83
2023/01/01 00:23:54;;;;;;;0.70;0.70;;;10.00;99.90;;;;;;5056877;28;20185;-83
2023/01/01 00:26:19;;;;;;;1.27;1.27;;;10.00;99.90;;;;;;5055271;28;20216;-82
2023/01/01 00:28:46;;;;;;;0.10;0.10;;;9.90;99.90;;;;;;5060159;28;20178;-82
2023/01/01 00:31:18;;;;;;;0.47;0.47;;;10.00;99.90;;;;;;5073921;28;20262;-82
2023/01/01 00:33:45;;;;;;;0.10;0.10;;;10.00;99.90;;;;;;5061828;28;20596;-82
2023/01/01 00:36:14;;;;;;;0.03;0.03;;;10.00;99.90;;;;;;5054867;28;20185;-82
2023/01/01 00:38:41;;;;;;;0.10;0.10;;;10.00;99.90;;;;;;5058109;28;20186;-82
2023/01/01 00:41:07;;;;;;;0.10;0.10;;;10.00;99.90;;;;;;5055660;28;20237;-81
2023/01/01 00:43:33;;;;;;;0.07;0.07;;;10.00;99.90;;;;;;5067032;28;20221;-82
2023/01/01 00:45:59;;;;;;;0.10;0.10;;;9.90;99.90;;;;;;5070882;28;20170;-82
2023/01/01 00:48:24;;;;;;;0.10;0.10;;;9.80;99.90;;;;;;5059172;28;20810;-82
2023/01/01 00:50:51;;;;;;;14.07;13.03;;;9.80;99.90;;;;;;5057911;28;20225;-82
2023/01/01 00:53:17;;;;;;;0.10;0.10;;;9.90;99.90;;;;;;5057946;28;20562;-82
2023/01/01 00:55:43;;;;;;;0.10;0.10;;;9.90;99.90;;;;;;5059361;28;20213;-82
2023/01/01 00:58:09;;;;;;;0.10;0.10;;;9.90;99.90;;;;;;5058018;28;20220;-82
2023/01/01 01:00:36;;;;;;;0.10;0.10;;;10.00;99.90;;;;;;5057237;28;20188;-82
2023/01/01 01:03:01;;;;;;;0.10;0.10;;;10.00;99.90;;;;;;5071729;28;20216;-82
2023/01/01 01:05:27;;;;;;;0.10;0.10;;;9.90;99.90;;;;;;5071589;28;20181;-82
2023/01/01 01:07:52;;;;;;;0.10;0.10;;;9.80;99.90;;;;;;5071340;28;20224;-81
2023/01/01 01:10:20;;;;;;;0.10;0.10;;;9.80;99.90;;;;;;5071278;28;20342;-82
2023/01/01 01:12:45;;;;;;;0.20;0.20;;;9.80;99.90;;;;;;5070187;28;20212;-82
2023/01/01 01:15:11;;;;;;;0.10;0.10;;;9.80;99.90;;;;;;5058191;28;20526;-81
2023/01/01 01:17:37;;;;;;;0.10;0.10;;;9.80;99.90;;;;;;5070380;28;20548;-81
2023/01/01 01:20:03;;;;;;;0.10;0.10;;;9.80;99.90;;;;;;5056053;28;20189;-82
2023/01/01 01:22:29;;;;;;;0.10;0.10;;;9.80;99.90;;;;;;5054901;28;20337;-82
2023/01/01 01:24:55;;;;;;;0.10;0.10;;;9.80;99.90;;;;;;5056738;28;20726;-82
2023/01/01 01:27:20;;;;;;;0.10;0.10;;;9.80;99.90;;;;;;5072803;28;20196;-82
2023/01/01 01:29:46;;;;;;;0.10;0.10;;;9.70;99.90;;;;;;5054463;28;20195;-82
2023/01/01 01:32:11;;;;;;;0.50;0.50;;;9.70;99.90;;;;;;5054898;28;20292;-81
2023/01/01 01:34:37;;;;;;;0.10;0.10;;;9.60;99.90;;;;;;5054735;28;20276;-82
2023/01/01 01:37:03;;;;;;;0.10;0.10;;;9.60;99.90;;;;;;5054620;28;20355;-82
2023/01/01 01:39:28;;;;;;;0.10;0.10;;;9.50;99.90;;;;;;5070194;28;20186;-82
2023/01/01 01:41:53;;;;;;;0.10;0.10;;;9.50;99.90;;;;;;5056760;28;20209;-82
2023/01/01 01:44:57;;;;;;;0.20;0.20;;;9.50;99.90;;;;;;5054588;28;20185;-82
2023/01/01 01:47:41;;;;;;;0.40;0.40;;;9.50;99.90;;;;;;5043303;28;20236;-82
2023/01/01 01:50:14;;;;;;;0.10;0.10;;;9.50;99.90;;;;;;5051540;28;20686;-82
2023/01/01 01:53:07;;;;;;;0.10;0.10;;;9.30;99.90;;;;;;5052926;28;20220;-82
2023/01/01 01:55:38;;;;;;;0.10;0.10;;;9.30;99.90;;;;;;5065063;28;20231;-82
2023/01/01 01:58:07;;;;;;;0.10;0.10;;;9.30;99.90;;;;;;5053998;28;20217;-81
2023/01/01 02:00:33;;;;;;;0.10;0.10;;;9.30;99.90;;;;;;5054522;28;20196;-82
2023/01/01 02:03:06;;;;;;;0.10;0.10;;;9.30;99.90;;;;;;5050835;28;20211;-83
2023/01/01 02:05:33;;;;;;;0.10;0.10;;;9.30;99.90;;;;;;5055115;28;20182;-82
2023/01/01 02:08:00;;;;;;;0.10;0.10;;;9.30;99.90;;;;;;5067721;28;20186;-81
2023/01/01 02:10:27;;;;;;;0.00;0.00;;;9.30;99.90;;;;;;5053043;28;20185;-82
2023/01/01 02:12:53;;;;;;;0.00;0.00;;;9.30;99.90;;;;;;5068021;28;20232;-82
2023/01/01 02:15:19;;;;;;;0.10;0.10;;;9.30;99.90;;;;;;5056788;28;20208;-82
2023/01/01 02:18:03;;;;;;;4.40;4.20;;;9.30;99.90;;;;;;5070914;28;20263;-82
2023/01/01 02:20:32;;;;;;;0.10;0.10;;;9.40;99.90;;;;;;5071076;28;20190;-81
2023/01/01 02:23:12;;;;;;;0.10;0.10;;;9.50;99.90;;;;;;5069251;28;20210;-82
2023/01/01 02:26:17;;;;;;;0.10;0.10;;;9.50;99.90;;;;;;5070782;28;20575;-81
2023/01/01 02:29:12;;;;;;;0.10;0.10;;;9.50;99.90;;;;;;5054502;28;20186;-81
2023/01/01 02:31:48;;;;;;;0.10;0.10;;;9.60;99.90;;;;;;5056122;28;21117;-81
2023/01/01 02:34:16;;;;;;;0.10;0.10;;;9.60;99.90;;;;;;5071309;28;20191;-81
2023/01/01 02:36:49;;;;;;;0.10;0.10;;;9.60;99.90;;;;;;5067892;28;20217;-82
2023/01/01 02:39:18;;;;;;;0.10;0.10;;;9.70;99.90;;;;;;5055943;28;20173;-82
2023/01/01 02:41:48;;;;;;;0.10;0.10;;;9.70;99.90;;;;;;5054035;28;20205;-82
2023/01/01 02:44:15;;;;;;;0.10;0.10;;;9.60;99.90;;;;;;5068034;28;20186;-82
2023/01/01 02:46:40;;;;;;;0.10;0.10;;;9.60;99.90;;;;;;5051489;28;20852;-82
2023/01/01 02:49:06;;;;;;;0.10;0.10;;;9.80;99.90;;;;;;5068690;28;20181;-82
2023/01/01 02:51:53;;;;;;;0.10;0.10;;;9.70;99.90;;;;;;5070882;28;20682;-82
2023/01/01 02:54:19;;;;;;;0.10;0.10;;;9.70;99.90;;;;;;5066815;28;20268;-82
2023/01/01 02:57:07;;;;;;;0.10;0.10;;;9.60;99.90;;;;;;5070679;28;20308;-82
2023/01/01 03:02:50;;;;;;;0.10;0.10;;;9.50;99.90;;;;;;5054042;28;20212;-81
2023/01/01 03:06:21;;;;;;;0.10;0.10;;;9.40;99.90;;;;;;5070324;28;20185;-82
2023/01/01 03:08:32;;;;;;;0.10;0.10;;;9.40;99.90;;;;;;5051404;28;20185;-82
2023/01/01 03:11:02;;;;;;;0.10;0.10;;;9.40;99.90;;;;;;5051938;28;20592;-82
2023/01/01 03:14:05;;;;;;;0.10;0.10;;;9.40;99.90;;;;;;5068441;28;20246;-81
2023/01/01 03:16:48;;;;;;;0.10;0.10;;;9.30;99.90;;;;;;5067111;28;20213;-82
2023/01/01 03:19:23;;;;;;;0.10;0.10;;;9.30;99.90;;;;;;5066143;28;20311;-82
2023/01/01 03:21:57;;;;;;;0.10;0.10;;;9.20;99.90;;;;;;5052841;28;20201;-82
2023/01/01 03:24:33;;;;;;;0.10;0.10;;;9.20;99.90;;;;;;5052599;28;20649;-82
2023/01/01 03:27:11;;;;;;;0.10;0.10;;;9.20;99.90;;;;;;5051937;28;20177;-82
2023/01/01 03:29:40;;;;;;;0.10;0.10;;;9.30;99.90;;;;;;5067521;28;20188;-82
2023/01/01 03:32:13;;;;;;;5.33;5.03;;;9.40;99.90;;;;;;5069216;28;20206;-82
2023/01/01 03:34:44;;;;;;;0.10;0.10;;;9.50;99.90;;;;;;5051078;28;20181;-82
2023/01/01 03:37:15;;;;;;;0.10;0.10;;;9.60;99.90;;;;;;5065807;28;20287;-82
2023/01/01 03:39:46;;;;;;;0.10;0.10;;;9.70;99.90;;;;;;5053036;28;20289;-82
2023/01/01 03:42:35;;;;;;;0.10;0.10;;;9.70;99.90;;;;;;5050769;28;20205;-82
2023/01/01 03:45:28;;;;;;;0.00;0.00;;;9.70;99.90;;;;;;5051029;28;20181;-82
2023/01/01 03:47:55;;;;;;;0.10;0.10;;;9.60;99.90;;;;;;5050598;28;20182;-81
2023/01/01 03:50:27;;;;;;;0.10;0.10;;;9.60;99.90;;;;;;5066517;28;20521;-83
2023/01/01 03:53:11;;;;;;;0.10;0.10;;;9.70;99.90;;;;;;5068356;28;20227;-82
2023/01/01 03:55:44;;;;;;;0.10;0.10;;;9.90;99.90;;;;;;5051140;28;20642;-82
2023/01/01 03:58:40;;;;;;;0.10;0.10;;;9.90;99.90;;;;;;5066309;28;20270;-81
2023/01/01 04:01:14;;;;;;;0.10;0.10;;;9.90;99.90;;;;;;5065485;28;20564;-82
2023/01/01 04:03:41;;;;;;;0.10;0.10;;;10.00;99.90;;;;;;5067374;28;20259;-82
2023/01/01 04:06:09;;;;;;;0.10;0.10;;;10.10;99.90;;;;;;5051636;28;20177;-82
2023/01/01 04:08:35;;;;;;;0.10;0.10;;;10.20;99.90;;;;;;5066444;28;20217;-82
2023/01/01 04:12:00;;;;;;;0.07;0.07;;;10.20;99.90;;;;;;5065949;28;20232;-82
2023/01/01 04:13:52;;;;;;;0.10;0.10;;;10.20;99.90;;;;;;5052715;28;20567;-82
2023/01/01 04:16:17;;;;;;;0.20;0.20;;;10.30;99.90;;;;;;5051519;28;20185;-81
2023/01/01 04:18:42;;;;;;;0.10;0.10;;;10.30;99.90;;;;;;5066005;28;20181;-82
2023/01/01 04:21:08;;;;;;;0.10;0.10;;;10.40;99.90;;;;;;5068169;28;20205;-82
2023/01/01 04:23:33;;;;;;;0.10;0.10;;;10.40;99.90;;;;;;5070616;28;20746;-82
2023/01/01 04:25:59;;;;;;;0.10;0.10;;;10.40;99.90;;;;;;5069488;28;20192;-82
2023/01/01 04:28:24;;;;;;;0.10;0.10;;;10.50;99.90;;;;;;5070085;28;20618;-82
2023/01/01 04:30:50;;;;;;;0.10;0.10;;;10.50;99.90;;;;;;5070425;28;20200;-82
2023/01/01 04:33:15;;;;;;;0.10;0.10;;;10.60;99.90;;;;;;5068891;28;20212;-82
2023/01/01 04:35:41;;;;;;;0.10;0.10;;;10.70;99.90;;;;;;5071584;28;20255;-82
2023/01/01 04:38:11;;;;;;;0.10;0.10;;;10.70;99.90;;;;;;5053081;28;20212;-82
2023/01/01 04:40:36;;;;;;;0.10;0.10;;;10.80;99.90;;;;;;5055823;28;21141;-82
2023/01/01 04:43:02;;;;;;;0.10;0.10;;;10.80;99.90;;;;;;5072087;28;20265;-83
2023/01/01 04:45:27;;;;;;;0.10;0.10;;;10.90;99.90;;;;;;5071594;28;20185;-82
2023/01/01 04:47:53;;;;;;;0.10;0.10;;;10.90;99.90;;;;;;5056256;28;20564;-82
2023/01/01 04:50:18;;;;;;;0.10;0.10;;;10.90;99.90;;;;;;5070493;28;20269;-83
2023/01/01 04:52:44;;;;;;;0.10;0.10;;;10.90;99.90;;;;;;5070735;28;20209;-82
2023/01/01 04:55:09;;;;;;;0.10;0.10;;;10.90;99.90;;;;;;5055851;28;20246;-82
2023/01/01 04:57:35;;;;;;;0.10;0.10;;;10.90;99.90;;;;;;5056746;28;20213;-82
2023/01/01 05:00:00;;;;;;;0.10;0.10;;;10.90;99.90;;;;;;5070425;28;20188;-82
2023/01/01 05:02:26;;;;;;;0.10;0.10;;;10.90;99.90;;;;;;5071051;28;20199;-82
2023/01/01 05:04:51;;;;;;;0.10;0.10;;;11.00;99.90;;;;;;5069840;28;20178;-82
2023/01/01 05:07:17;;;;;;;0.10;0.10;;;11.00;99.90;;;;;;5057667;28;20530;-82
2023/01/01 05:09:42;;;;;;;0.10;0.10;;;11.00;99.90;;;;;;5070123;28;20197;-82
2023/01/01 05:12:08;;;;;;;0.10;0.10;;;10.90;99.90;;;;;;5071022;28;20225;-83
2023/01/01 05:14:33;;;;;;;0.10;0.10;;;10.90;99.90;;;;;;5056790;28;20958;-82
2023/01/01 05:16:59;;;;;;;0.10;0.10;;;10.90;99.90;;;;;;5055831;28;20203;-81
2023/01/01 05:19:24;;;;;;;0.10;0.10;;;11.00;99.90;;;;;;5053322;28;20268;-82
2023/01/01 05:21:50;;;;;;;0.10;0.10;;;10.90;99.90;;;;;;5056412;28;21041;-82
2023/01/01 05:24:15;;;;;;;0.10;0.10;;;10.90;99.90;;;;;;5070535;28;20198;-82
2023/01/01 05:26:43;;;;;;;0.10;0.10;;;10.90;99.90;;;;;;5070986;28;21062;-83
2023/01/01 05:29:09;;;;;;;0.10;0.10;;;10.90;99.90;;;;;;5055393;28;20179;-82
2023/01/01 05:31:35;;;;;;;0.10;0.10;;;10.80;99.90;;;;;;5071242;28;20202;-82
2023/01/01 05:34:02;;;;;;;0.10;0.10;;;10.80;99.90;;;;;;5054900;28;20182;-82
2023/01/01 05:36:30;;;;;;;0.10;0.10;;;10.90;99.90;;;;;;5054651;28;20910;-82
2023/01/01 05:38:57;;;;;;;0.10;0.10;;;10.90;99.90;;;;;;5056250;28;20182;-81
2023/01/01 05:41:23;;;;;;;0.03;0.03;;;10.80;99.90;;;;;;5069086;28;20205;-82
2023/01/01 05:43:50;;;;;;;0.10;0.10;;;10.70;99.90;;;;;;5070845;28;20182;-83
2023/01/01 05:46:23;;;;;;;0.10;0.10;;;10.70;99.90;;;;;;5069237;28;20224;-82
2023/01/01 05:48:51;;;;;;;0.10;0.10;;;10.70;99.90;;;;;;5053548;28;20705;-82
2023/01/01 05:51:22;;;;;;;0.10;0.10;;;10.60;99.90;;;;;;5067977;28;20682;-82
2023/01/01 05:53:48;;;;;;;0.10;0.10;;;10.60;99.90;;;;;;5068198;28;20247;-82
2023/01/01 05:56:15;;;;;;;0.00;0.00;;;10.60;99.90;;;;;;5053871;28;20194;-82
2023/01/01 05:58:41;;;;;;;0.10;0.10;;;10.60;99.90;;;;;;5071970;28;20469;-82
2023/01/01 06:01:09;;;;;;;0.10;0.10;;;10.50;99.90;;;;;;5056221;28;20201;-82
2023/01/01 06:03:35;;;;;;;0.10;0.10;;;10.50;99.90;;;;;;5052808;28;20188;-82
2023/01/01 06:06:09;;;;;;;0.10;0.10;;;10.50;99.90;;;;;;5058016;28;20192;-82
2023/01/01 06:08:35;;;;;;;0.10;0.10;;;10.50;99.90;;;;;;5070105;28;20177;-82
2023/01/01 06:11:02;;;;;;;0.10;0.10;;;10.50;99.90;;;;;;5054903;28;20250;-81
2023/01/01 06:13:28;;;;;;;0.10;0.10;;;10.50;99.90;;;;;;5062773;28;20192;-82
2023/01/01 06:15:58;;;;;;;0.10;0.10;;;10.60;99.90;;;;;;5052114;28;21003;-82
2023/01/01 06:18:25;;;;;;;0.10;0.10;;;10.50;99.90;;;;;;5055236;28;20208;-82
2023/01/01 06:20:51;;;;;;;0.00;0.00;;;10.50;99.90;;;;;;5068713;28;20208;-82
2023/01/01 06:23:17;;;;;;;0.10;0.10;;;10.50;99.90;;;;;;5068543;28;20212;-82
2023/01/01 06:25:43;;;;;;;0.10;0.10;;;10.40;99.90;;;;;;5053539;28;20239;-82
2023/01/01 06:28:08;;;;;;;0.10;0.10;;;10.40;99.90;;;;;;5050990;28;20185;-83
2023/01/01 06:30:35;;;;;;;0.10;0.10;;;10.50;99.90;;;;;;5068669;28;20177;-82
2023/01/01 06:33:00;;;;;;;0.10;0.10;;;10.50;99.90;;;;;;5069233;28;20218;-82
2023/01/01 06:35:26;;;;;;;0.10;0.10;;;10.50;99.90;;;;;;5070438;28;20544;-81
2023/01/01 06:37:52;;;;;;;0.10;0.10;;;10.40;99.90;;;;;;5067698;28;20255;-82
2023/01/01 06:40:17;;;;;;;0.00;0.00;;;10.40;99.90;;;;;;5071071;28;21368;-82
2023/01/01 06:42:43;;;;;;;0.10;0.10;;;10.40;99.90;;;;;;5055068;28;20279;-83
2023/01/01 06:45:09;;;;;;;0.10;0.10;;;10.40;99.90;;;;;;5070250;28;20189;-82
2023/01/01 06:47:35;;;;;;;0.10;0.10;;;10.40;99.90;;;;;;5053236;28;20210;-83
2023/01/01 06:50:02;;;;;;;0.10;0.10;;;10.20;99.90;;;;;;5052268;28;20192;-82
2023/01/01 06:52:28;;;;;;;0.10;0.10;;;10.00;99.90;;;;;;5068697;28;20201;-82
2023/01/01 06:54:53;;;;;;;0.10;0.10;;;10.10;99.90;;;;;;5067758;28;20658;-82
2023/01/01 06:57:19;;;;;;;0.10;0.10;;;10.00;99.90;;;;;;5053973;28;20711;-82
2023/01/01 06:59:44;;;;;;;0.10;0.10;;;10.00;99.90;;;;;;5067607;28;20189;-81
2023/01/01 07:02:10;;;;;;;0.10;0.10;;;10.00;99.90;;;;;;5068420;28;20573;-81
2023/01/01 07:04:36;;;;;;;0.10;0.10;;;9.90;99.90;;;;;;5053451;28;20184;-81
2023/01/01 07:07:02;;;;;;;0.10;0.10;;;9.70;99.90;;;;;;5052665;28;20193;-82
2023/01/01 07:09:28;;;;;;;0.10;0.10;;;9.50;99.90;;;;;;5054001;28;20269;-81
2023/01/01 07:11:53;;;;;;;0.10;0.10;;;9.40;99.90;;;;;;5052746;28;20200;-82
2023/01/01 07:14:19;;;;;;;0.03;0.03;;;9.30;99.90;;;;;;5052143;28;20654;-82
2023/01/01 07:16:44;;;;;;;0.10;0.10;;;9.30;99.90;;;;;;5051167;28;20615;-82
2023/01/01 07:19:10;;;;;;;0.00;0.00;;;9.30;99.90;;;;;;5065515;28;20174;-84
2023/01/01 07:21:35;;;;;;;0.10;0.10;;;9.40;99.90;;;;;;5066202;28;20311;-84
2023/01/01 07:24:03;;;;;;;0.10;0.10;;;9.40;99.90;;;;;;5049263;28;20228;-82
2023/01/01 07:26:30;;;;;;;0.10;0.10;;;9.40;99.90;;;;;;5065160;28;20231;-82
2023/01/01 07:28:57;;;;;;;0.10;0.10;;;9.60;99.90;;;;;;5064356;28;20532;-81
2023/01/01 07:31:22;;;;;;;0.10;0.10;;;9.70;99.90;;;;;;5052755;28;21304;-83
2023/01/01 07:33:48;;;;;;;0.10;0.10;;;9.80;99.90;;;;;;5066088;28;20182;-81
2023/01/01 07:36:14;;;;;;;0.10;0.10;;;9.80;99.90;;;;;;5065217;28;20182;-82
2023/01/01 07:38:39;;;;;;;0.10;0.10;;;9.90;99.90;;;;;;5071441;28;20292;-81
2023/01/01 07:41:05;;;;;;;0.10;0.10;;;9.80;99.90;;;;;;5056441;28;20244;-83
2023/01/01 07:43:30;;;;;;;0.10;0.10;;;9.80;99.90;;;;;;5056477;28;20176;-82
2023/01/01 07:45:57;;;;;;;0.10;0.10;;;9.60;99.90;;;;;;5057468;28;20174;-82
2023/01/01 07:48:23;;;;;;;0.10;0.10;;;9.60;99.90;;;;;;5057276;28;20238;-83
2023/01/01 07:50:50;;;;;;;0.10;0.10;;;9.50;99.90;;;;;;5071019;28;20601;-82
2023/01/01 07:53:15;;;;;;;0.10;0.10;;;9.60;99.90;;;;;;5053574;28;20196;-82
2023/01/01 07:55:41;;;;;;;0.10;0.10;;;9.70;99.90;;;;;;5068957;28;20197;-82
2023/01/01 07:58:07;;;;;;;0.10;0.10;;;9.80;99.90;;;;;;5057160;28;21280;-82
2023/01/01 08:00:33;;;;;;;0.10;0.10;;;9.60;99.90;;;;;;5075472;28;20177;-82
2023/01/01 08:02:58;;;;;;;0.10;0.10;;;9.60;99.90;;;;;;5057844;28;20197;-81
2023/01/01 08:05:24;;;;;;;0.10;0.10;;;9.60;99.90;;;;;;5059489;28;20183;-82
2023/01/01 08:07:50;;;;;;;0.10;0.10;;;9.50;99.90;;;;;;5057148;28;20196;-82
2023/01/01 08:10:18;;;;;;;0.10;0.10;;;9.60;99.90;;;;;;5061345;28;20202;-81
2023/01/01 08:12:44;;;;;;;0.10;0.10;;;9.80;99.90;;;;;;5075386;28;20226;-81
2023/01/01 08:15:11;;;;;;;0.10;0.10;;;9.80;99.90;;;;;;5073547;28;20192;-82
2023/01/01 08:17:36;;;;;;;0.10;0.10;;;9.90;99.90;;;;;;5075323;28;20223;-82
2023/01/01 08:20:03;;;;;;;0.10;0.10;;;9.90;99.90;;;;;;5074765;28;20185;-83
2023/01/01 08:22:28;;;;;;;0.10;0.10;;;9.80;99.90;;;;;;5056094;28;20259;-82
2023/01/01 08:24:54;;;;;;;0.10;0.10;;;9.80;99.90;;;;;;5069288;28;20261;-82
2023/01/01 08:27:19;;;;;;;0.00;0.00;;;9.90;99.90;;;;;;5048422;28;20290;-82
2023/01/01 08:29:45;;;;;;;0.10;0.10;;;10.10;99.90;;;;;;5070079;28;20629;-84
2023/01/01 08:32:11;;;;;;;0.10;0.10;;;10.40;99.90;;;;;;5067885;28;20996;-83
2023/01/01 08:34:37;;;;;;;0.10;0.10;;;10.40;99.90;;;;;;5057096;28;20185;-82
2023/01/01 08:37:03;;;;;;;0.10;0.10;;;10.60;99.90;;;;;;5068563;28;20728;-82
2023/01/01 08:39:28;;;;;;;0.10;0.10;;;10.70;99.90;;;;;;5053077;28;20181;-81
2023/01/01 08:41:54;;;;;;;0.07;0.07;;;10.60;99.90;;;;;;5066492;28;20215;-83
2023/01/01 08:44:22;;;;;;;0.10;0.10;;;10.80;99.90;;;;;;5066421;28;20691;-83
2023/01/01 08:46:47;;;;;;;0.10;0.10;;;11.00;99.90;;;;;;5067228;28;20193;-82
2023/01/01 08:49:13;;;;;;;8.87;8.10;;;11.20;99.90;;;;;;5058949;28;21466;-83
2023/01/01 08:51:39;;;;;;;0.10;0.10;;;11.20;99.90;;;;;;5057756;28;20226;-82
2023/01/01 08:54:05;;;;;;;0.10;0.10;;;11.20;99.90;;;;;;5059763;28;20208;-82
2023/01/01 08:56:30;;;;;;;0.10;0.10;;;11.20;99.90;;;;;;5071693;28;20435;-81
2023/01/01 08:58:56;;;;;;;0.10;0.10;;;11.30;99.90;;;;;;5072307;28;20194;-81
2023/01/01 09:01:21;;;;;;;0.10;0.10;;;11.40;99.90;;;;;;5053443;28;20193;-83
2023/01/01 09:03:48;;;;;;;0.10;0.10;;;11.40;99.90;;;;;;5053416;28;20185;-82
2023/01/01 09:06:13;;;;;;;0.10;0.10;;;11.40;99.90;;;;;;5068089;28;20269;-81
2023/01/01 09:08:39;;;;;;;0.10;0.10;;;11.50;99.90;;;;;;5058000;28;20277;-82
2023/01/01 09:11:05;;;;;;;0.10;0.10;;;11.60;99.90;;;;;;5069252;28;20190;-83
2023/01/01 09:13:31;;;;;;;0.10;0.10;;;11.70;99.90;;;;;;5052588;28;20254;-83
2023/01/01 09:15:57;;;;;;;0.10;0.10;;;11.70;99.90;;;;;;5069939;28;20683;-83
2023/01/01 09:18:23;;;;;;;0.10;0.10;;;11.90;99.90;;;;;;5067017;28;20281;-82
2023/01/01 09:20:49;;;;;;;0.10;0.10;;;11.90;99.90;;;;;;5054480;28;20272;-83
2023/01/01 09:23:15;;;;;;;0.10;0.10;;;12.00;99.90;;;;;;5050913;28;20205;-82
2023/01/01 09:25:41;;;;;;;0.10;0.10;;;12.10;99.90;;;;;;5069868;28;20197;-82
2023/01/01 09:28:09;;;;;;;0.10;0.10;;;12.20;99.90;;;;;;5068197;28;20189;-82
2023/01/01 09:30:35;;;;;;;0.00;0.00;;;12.10;99.90;;;;;;5054957;28;20181;-83
2023/01/01 09:33:01;;;;;;;0.10;0.10;;;12.10;99.90;;;;;;5051292;28;20224;-82
2023/01/01 09:35:28;;;;;;;0.10;0.10;;;11.90;99.90;;;;;;5056109;28;20185;-83
2023/01/01 09:37:55;;;;;;;0.20;0.20;;;11.80;99.90;;;;;;5051885;28;20202;-83
2023/01/01 09:40:42;;;;;;;0.07;0.07;;;12.00;99.90;;;;;;5051473;28;20204;-80
2023/01/01 09:43:13;;;;;;;0.10;0.10;;;11.70;99.90;;;;;;5052379;28;20296;-81
2023/01/01 09:45:58;;;;;;;0.10;0.10;;;11.90;99.90;;;;;;5070406;28;20192;-82
2023/01/01 09:48:27;;;;;;;0.10;0.10;;;11.90;99.90;;;;;;5070558;28;20185;-82
2023/01/01 09:50:52;;;;;;;0.10;0.10;;;12.00;99.90;;;;;;5054376;28;20672;-83
2023/01/01 09:53:32;;;;;;;0.10;0.10;;;12.20;99.90;;;;;;5052216;28;20186;-82
2023/01/01 09:56:00;;;;;;;0.10;0.10;;;12.20;99.90;;;;;;5052038;28;20190;-83
2023/01/01 09:58:35;;;;;;;0.10;0.10;;;12.30;99.90;;;;;;5069239;28;20262;-82
2023/01/01 10:01:39;;;;;;;0.10;0.10;;;12.40;99.90;;;;;;5070641;28;20181;-83
2023/01/01 10:04:22;;;;;;;0.10;0.10;;;12.10;99.90;;;;;;5067143;28;20201;-82
2023/01/01 10:07:18;;;;;;;0.10;0.10;;;12.30;99.90;;;;;;5066716;28;20193;-83
2023/01/01 10:09:52;;;;;;;0.10;0.10;;;12.40;99.90;;;;;;5052947;28;20200;-83
2023/01/01 10:12:47;;;;;;;0.10;0.10;;;12.50;99.90;;;;;;5052616;28;20599;-83
2023/01/01 10:15:36;;;;;;;0.00;0.00;;;12.60;99.90;;;;;;5042672;28;20199;-83
2023/01/01 10:18:05;;;;;;;0.10;0.10;;;12.80;99.90;;;;;;5066326;28;20305;-82
2023/01/01 10:20:56;;;;;;;0.10;0.10;;;12.80;99.90;;;;;;5068383;28;20187;-82
2023/01/01 10:23:26;;;;;;;0.10;0.10;;;12.80;99.90;;;;;;5052890;28;20295;-83
2023/01/01 10:25:55;;;;;;;0.10;0.10;;;13.00;99.90;;;;;;5054026;28;20217;-82
2023/01/01 10:28:51;;;;;;;0.10;0.10;;;13.00;99.90;;;;;;5055359;28;20211;-82
2023/01/01 10:31:30;;;;;;;0.10;0.10;;;13.00;99.90;;;;;;5030116;28;20303;-82
2023/01/01 10:33:56;;;;;;;0.10;0.10;;;13.20;99.90;;;;;;5053565;28;20183;-82
2023/01/01 10:36:22;;;;;;;0.10;0.10;;;13.30;99.90;;;;;;5051688;28;20189;-82
2023/01/01 10:38:49;;;;;;;0.10;0.10;;;13.40;99.90;;;;;;5053099;28;20220;-82
2023/01/01 10:41:16;;;;;;;0.10;0.10;;;13.30;99.90;;;;;;5069162;28;20549;-82
2023/01/01 10:43:43;;;;;;;0.10;0.10;;;13.20;99.90;;;;;;5068321;28;20194;-81
2023/01/01 10:46:14;;;;;;;0.10;0.10;;;13.00;99.90;;;;;;5054007;28;20192;-82
2023/01/01 10:49:00;;;;;;;0.10;0.10;;;12.90;99.90;;;;;;5065562;28;20205;-81
2023/01/01 10:51:25;;;;;;;0.00;0.00;;;12.90;99.90;;;;;;5070595;28;20208;-82
2023/01/01 10:53:51;;;;;;;0.10;0.10;;;12.90;99.90;;;;;;5064717;28;20197;-81
2023/01/01 10:56:19;;;;;;;0.10;0.10;;;13.00;99.90;;;;;;5052691;28;20205;-81
2023/01/01 10:58:53;;;;;;;0.10;0.10;;;13.10;99.90;;;;;;5048320;28;20217;-82
2023/01/01 11:01:24;;;;;;;0.10;0.10;;;13.20;99.90;;;;;;5064285;28;20306;-82
2023/01/01 11:03:59;;;;;;;0.10;0.10;;;13.30;99.90;;;;;;5045498;28;20214;-83
2023/01/01 11:06:33;;;;;;;0.10;0.10;;;13.50;99.90;;;;;;5051097;28;20189;-81
2023/01/01 11:09:02;;;;;;;0.10;0.10;;;13.40;99.90;;;;;;5062511;28;20182;-83
2023/01/01 11:11:31;;;;;;;0.10;0.10;;;13.50;99.90;;;;;;5064820;28;20586;-82
2023/01/01 11:13:59;;;;;;;0.10;0.10;;;13.70;99.90;;;;;;5051654;28;20196;-82
2023/01/01 11:16:27;;;;;;;0.10;0.10;;;13.70;99.90;;;;;;5049256;28;20551;-81
2023/01/01 11:19:04;;;;;;;0.10;0.10;;;13.80;99.90;;;;;;5051840;28;20248;-83
2023/01/01 11:21:30;;;;;;;0.10;0.10;;;14.00;99.90;;;;;;5066005;28;20212;-82
2023/01/01 11:24:19;;;;;;;0.10;0.10;;;14.00;99.90;;;;;;5069774;28;20191;-82
2023/01/01 11:26:45;;;;;;;0.10;0.10;;;14.10;99.90;;;;;;5050406;28;20196;-82
2023/01/01 11:29:21;;;;;;;0.10;0.10;;;14.20;99.90;;;;;;5066103;28;20190;-83
2023/01/01 11:31:47;;;;;;;0.10;0.10;;;14.30;99.90;;;;;;5065546;28;20296;-84
2023/01/01 11:34:34;;;;;;;0.10;0.10;;;14.30;99.90;;;;;;5052819;28;20200;-82
2023/01/01 11:37:25;;;;;;;0.10;0.10;;;14.40;99.90;;;;;;5053552;28;20205;-81
2023/01/01 11:39:53;;;;;;;0.10;0.10;;;14.50;99.90;;;;;;5053550;28;20206;-81
2023/01/01 11:42:32;;;;;;;0.10;0.10;;;14.60;99.90;;;;;;5066977;28;20209;-82
2023/01/01 11:45:02;;;;;;;0.10;0.10;;;14.60;99.90;;;;;;5075525;28;20247;-82
2023/01/01 11:47:38;;;;;;;0.10;0.10;;;14.60;99.90;;;;;;5067276;28;20265;-81
2023/01/01 11:50:12;;;;;;;0.10;0.10;;;14.60;99.90;;;;;;5052100;28;20191;-81
2023/01/01 11:52:41;;;;;;;0.10;0.10;;;14.60;99.90;;;;;;5066170;28;20798;-82
2023/01/01 11:55:36;;;;;;;0.10;0.10;;;14.60;99.90;;;;;;5057212;28;20192;-82
2023/01/01 11:58:14;;;;;;;0.10;0.10;;;14.60;99.90;;;;;;5059550;28;20211;-82
2023/01/01 12:00:39;;;;;;;0.10;0.10;;;14.60;99.90;;;;;;5059540;28;20314;-81
2023/01/01 12:03:18;;;;;;;0.10;0.10;;;14.70;99.90;;;;;;5057929;28;20258;-82
2023/01/01 12:06:07;;;;;;;0.10;0.10;;;14.70;99.90;;;;;;5071999;28;20204;-82
2023/01/01 12:08:38;;;;;;;0.10;0.10;;;14.70;99.90;;;;;;5073295;28;20245;-82
2023/01/01 12:11:25;;;;;;;0.10;0.10;;;14.80;99.90;;;;;;5071645;28;20193;-81
2023/01/01 12:13:57;;;;;;;0.10;0.10;;;14.90;99.90;;;;;;5049649;28;20205;-80
2023/01/01 12:16:46;;;;;;;0.10;0.10;;;15.00;99.90;;;;;;5051023;28;20182;-81
2023/01/01 12:19:25;;;;;;;0.10;0.10;;;15.10;99.90;;;;;;5052376;28;20262;-82
2023/01/01 12:21:56;;;;;;;0.10;0.10;;;15.10;99.90;;;;;;5070253;28;20208;-81
2023/01/01 12:24:22;;;;;;;0.10;0.10;;;15.10;99.90;;;;;;5052479;28;20180;-82
2023/01/01 12:27:13;;;;;;;0.10;0.10;;;15.10;99.90;;;;;;5053186;28;20189;-81
2023/01/01 12:30:04;;;;;;;0.10;0.10;;;15.10;99.90;;;;;;5052289;28;20190;-81
2023/01/01 12:33:02;;;;;;;0.10;0.10;;;15.20;99.90;;;;;;5065608;28;20200;-81
2023/01/01 12:36:10;;;;;;;0.10;0.10;;;15.10;99.90;;;;;;5051462;28;20292;-82
2023/01/01 12:38:44;;;;;;;0.10;0.10;;;15.10;99.90;;;;;;5067583;28;20299;-82
2023/01/01 12:41:19;;;;;;;0.10;0.10;;;15.10;99.90;;;;;;5071379;28;20231;-81
2023/01/01 12:43:53;;;;;;;0.10;0.10;;;15.10;99.90;;;;;;5071901;28;20207;-82
2023/01/01 12:46:41;;;;;;;0.10;0.10;;;15.10;99.90;;;;;;5056341;28;20182;-81
2023/01/01 12:49:21;;;;;;;0.10;0.10;;;15.20;99.90;;;;;;5057828;28;20184;-81
2023/01/01 12:52:12;;;;;;;0.10;0.10;;;15.20;99.90;;;;;;5059333;28;20202;-81
2023/01/01 12:55:05;;;;;;;0.10;0.10;;;15.20;99.90;;;;;;5074341;28;20181;-82
2023/01/01 12:57:38;;;;;;;0.10;0.10;;;15.20;99.90;;;;;;5074518;28;20247;-81
2023/01/01 13:00:13;;;;;;;0.10;0.10;;;15.30;99.90;;;;;;5059557;28;20182;-81
2023/01/01 13:02:58;;;;;;;0.10;0.10;;;15.30;99.90;;;;;;5072011;28;20208;-81
2023/01/01 13:05:39;;;;;;;0.10;0.10;;;15.40;99.90;;;;;;5057516;28;20180;-81
2023/01/01 13:08:06;;;;;;;0.10;0.10;;;15.40;99.90;;;;;;5055857;28;20583;-81
2023/01/01 13:10:38;;;;;;;0.10;0.10;;;15.40;99.90;;;;;;5055021;28;20895;-81
2023/01/01 13:13:04;;;;;;;0.10;0.10;;;15.40;99.90;;;;;;5070497;28;20212;-81
2023/01/01 13:15:39;;;;;;;0.10;0.10;;;15.40;99.90;;;;;;5054815;28;20607;-80